Time;durP1;ratioP1;P1;durP2;ratioP2;P2;SDS_P1;SDS_P2;PMS_P1;PMS_P2;Temp;Humidity;BMP_temperature;BMP_pressure;BME280_temperature;BME280_humidity;BME280_pressure;Samples;Min_cycle;Max_cycle;Signal;HPM_P1;HPM_P2
2022/05/08 00:03:58;;;;;;;4.18;2.00;;;;;;;10.82;83.36;99884.72;8386519;28;20036;-70
2022/05/08 00:08:00;;;;;;;2.78;1.73;;;;;;;10.75;83.95;99884.69;8363630;28;20036;-70
2022/05/08 00:12:01;;;;;;;3.20;1.90;;;;;;;10.76;83.95;99879.50;8388941;28;20138;-70
2022/05/08 00:16:03;;;;;;;4.22;1.73;;;;;;;10.76;84.44;99878.63;8388594;28;20055;-71
2022/05/08 00:20:07;;;;;;;5.30;2.20;;;;;;;10.86;84.23;99865.69;8371755;28;20048;-70
2022/05/08 00:24:09;;;;;;;2.00;1.90;;;;;;;11.05;83.53;99868.31;8371198;28;20424;-70
2022/05/08 00:28:11;;;;;;;2.55;2.10;;;;;;;10.94;83.03;99863.09;8389265;28;20083;-70
2022/05/08 00:32:12;;;;;;;1.70;1.60;;;;;;;10.82;83.44;99856.16;8385903;28;20048;-71
2022/05/08 00:36:14;;;;;;;3.80;1.67;;;;;;;10.77;83.61;99862.19;8388000;28;20037;-70
2022/05/08 00:40:15;;;;;;;5.45;1.92;;;;;;;10.69;84.31;99849.19;8388785;28;20064;-71
2022/05/08 00:44:17;;;;;;;2.08;1.70;;;;;;;10.73;84.02;99855.25;8388991;28;20451;-71
2022/05/08 00:48:19;;;;;;;2.45;1.50;;;;;;;10.63;84.15;99846.59;8367534;28;20047;-71
2022/05/08 00:52:21;;;;;;;3.07;1.40;;;;;;;10.59;84.12;99837.94;8371412;28;20463;-71
2022/05/08 00:56:22;;;;;;;3.40;2.03;;;;;;;10.60;84.67;99838.78;8388496;28;20068;-71
2022/05/08 01:00:24;;;;;;;3.23;1.90;;;;;;;10.58;83.95;99843.09;8388488;28;20044;-71
2022/05/08 01:04:25;;;;;;;3.80;1.90;;;;;;;10.55;84.09;99833.56;8387377;28;20136;-70
2022/05/08 01:08:27;;;;;;;4.35;1.92;;;;;;;10.54;83.91;99837.03;8371104;28;20078;-71
2022/05/08 01:12:32;;;;;;;3.10;1.50;;;;;;;10.50;84.88;99837.88;8388610;28;20131;-70
2022/05/08 01:16:33;;;;;;;4.72;1.70;;;;;;;10.49;84.46;99838.75;8384858;28;20213;-71
2022/05/08 01:20:35;;;;;;;4.78;1.95;;;;;;;10.48;84.72;99841.34;8367208;28;20076;-71
2022/05/08 01:24:37;;;;;;;2.17;1.98;;;;;;;10.42;84.87;99834.41;8369185;28;20036;-70
2022/05/08 01:28:38;;;;;;;1.88;1.70;;;;;;;10.34;85.29;99836.09;8388366;28;20048;-71
2022/05/08 01:32:40;;;;;;;2.92;1.45;;;;;;;10.23;85.32;99833.47;8384318;28;20352;-71
2022/05/08 01:36:41;;;;;;;1.90;1.80;;;;;;;10.24;85.94;99832.63;8369834;28;20056;-71
2022/05/08 01:40:44;;;;;;;2.58;1.98;;;;;;;10.23;85.32;99838.66;8369573;28;20048;-73
2022/05/08 01:44:45;;;;;;;2.00;1.73;;;;;;;10.12;85.29;99831.66;8388353;28;20032;-71
2022/05/08 01:48:48;;;;;;;2.67;1.80;;;;;;;10.08;85.77;99835.97;8387138;28;20079;-71
2022/05/08 01:52:51;;;;;;;1.88;1.77;;;;;;;10.06;86.22;99836.84;8387090;28;20623;-71
2022/05/08 01:56:52;;;;;;;1.83;1.73;;;;;;;10.07;85.77;99833.38;8386729;28;20036;-71
2022/05/08 02:00:55;;;;;;;2.97;1.60;;;;;;;9.97;85.52;99835.03;8383138;28;20048;-71
2022/05/08 02:04:57;;;;;;;1.70;1.60;;;;;;;9.95;85.88;99844.53;8390959;28;20131;-71
2022/05/08 02:08:59;;;;;;;1.83;1.70;;;;;;;9.89;86.07;99839.34;8370353;28;20097;-71
2022/05/08 02:13:00;;;;;;;1.90;1.80;;;;;;;9.82;85.80;99840.13;8371258;28;20813;-71
2022/05/08 02:17:04;;;;;;;1.77;1.67;;;;;;;9.81;85.88;99844.47;8372050;28;20135;-71
2022/05/08 02:21:05;;;;;;;2.80;2.35;;;;;;;9.73;86.03;99838.38;8391882;28;20050;-71
2022/05/08 02:25:07;;;;;;;1.80;1.67;;;;;;;9.67;86.13;99839.19;8391501;28;20040;-71
2022/05/08 02:29:09;;;;;;;2.00;1.80;;;;;;;9.64;86.09;99839.16;8373975;28;20539;-71
2022/05/08 02:33:10;;;;;;;2.05;1.70;;;;;;;9.63;86.47;99844.34;8390817;28;20044;-71
2022/05/08 02:37:11;;;;;;;2.00;1.90;;;;;;;9.58;86.67;99836.53;8373498;28;20037;-71
2022/05/08 02:41:13;;;;;;;2.28;2.08;;;;;;;9.55;86.98;99843.44;8391165;28;20048;-71
2022/05/08 02:45:14;;;;;;;4.05;2.33;;;;;;;9.50;86.40;99851.16;8390463;28;20068;-70
2022/05/08 02:49:16;;;;;;;1.57;1.47;;;;;;;9.45;86.90;99849.41;8369404;28;20068;-71
2022/05/08 02:53:19;;;;;;;2.00;1.80;;;;;;;9.37;87.62;99844.19;8383716;28;20409;-71
2022/05/08 03:01:41;;;;;;;1.88;1.73;;;;;;;9.26;87.78;99843.22;8389168;28;20528;-70
2022/05/08 03:05:47;;;;;;;2.33;2.20;;;;;;;9.20;87.26;99841.44;8385492;28;20052;-71
2022/05/08 03:09:49;;;;;;;2.83;1.95;;;;;;;9.19;87.40;99839.72;8386020;28;20045;-71
2022/05/08 03:13:51;;;;;;;3.15;1.92;;;;;;;9.15;87.21;99848.28;8385393;28;20161;-70
2022/05/08 03:17:52;;;;;;;4.20;2.20;;;;;;;9.09;87.39;99840.47;8385026;28;20063;-70
2022/05/08 03:21:54;;;;;;;1.63;1.53;;;;;;;9.05;87.40;99841.31;8381938;28;20441;-70
2022/05/08 03:25:55;;;;;;;2.03;1.92;;;;;;;9.00;87.46;99835.22;8384870;28;20128;-71
2022/05/08 03:29:58;;;;;;;2.38;2.00;;;;;;;8.95;87.37;99842.94;8385782;28;20071;-71
2022/05/08 03:34:00;;;;;;;2.00;1.80;;;;;;;8.93;87.08;99841.19;8365204;28;20452;-70
2022/05/08 03:38:02;;;;;;;2.17;1.85;;;;;;;8.87;87.13;99847.19;8385595;28;20115;-71
2022/05/08 03:42:03;;;;;;;1.83;1.70;;;;;;;8.82;87.31;99843.69;8384647;28;20048;-70
2022/05/08 03:46:05;;;;;;;2.35;1.70;;;;;;;8.77;87.75;99845.34;8367578;28;20380;-70
2022/05/08 03:50:07;;;;;;;1.98;1.75;;;;;;;8.76;86.80;99841.03;8385044;28;20093;-71
2022/05/08 03:54:09;;;;;;;2.55;1.95;;;;;;;8.70;87.15;99843.56;8385446;28;20044;-70
2022/05/08 03:58:10;;;;;;;2.70;1.80;;;;;;;8.59;87.48;99858.09;8385070;28;20646;-70
2022/05/08 04:02:12;;;;;;;3.05;1.80;;;;;;;8.55;87.46;99858.91;8383794;28;20044;-71
2022/05/08 04:06:13;;;;;;;2.30;1.90;;;;;;;8.51;87.85;99863.19;8367192;28;20041;-72
2022/05/08 04:10:15;;;;;;;2.05;1.70;;;;;;;8.51;88.16;99857.16;8384364;28;20044;-71
2022/05/08 04:14:16;;;;;;;2.58;2.03;;;;;;;8.54;88.15;99867.53;8366094;28;20052;-71
2022/05/08 04:18:18;;;;;;;4.20;1.90;;;;;;;8.53;88.26;99864.06;8385017;28;20062;-71
2022/05/08 04:26:39;;;;;;;1.70;1.60;;;;;;;8.55;88.52;99866.69;8381698;28;20724;-71
2022/05/08 04:30:41;;;;;;;1.92;1.67;;;;;;;8.56;88.14;99868.41;8384201;28;20060;-71
2022/05/08 04:34:42;;;;;;;2.10;2.00;;;;;;;8.60;88.41;99862.41;8384061;28;20102;-71
2022/05/08 04:38:44;;;;;;;2.00;1.65;;;;;;;8.64;88.87;99869.38;8388169;28;20044;-71
2022/05/08 04:42:46;;;;;;;3.13;2.10;;;;;;;8.67;88.72;99869.41;8369033;28;20044;-71
2022/05/08 04:46:47;;;;;;;2.13;1.90;;;;;;;8.73;89.06;99864.28;8388187;28;20068;-71
2022/05/08 04:50:49;;;;;;;1.83;1.70;;;;;;;8.79;88.57;99866.94;8388355;28;20045;-72
2022/05/08 04:54:51;;;;;;;3.43;1.77;;;;;;;8.93;88.59;99869.69;8369395;28;20068;-71
2022/05/08 04:58:52;;;;;;;2.95;1.63;;;;;;;9.07;88.78;99874.13;8370705;28;20608;-72
2022/05/08 05:02:54;;;;;;;1.60;1.50;;;;;;;9.26;89.00;99879.47;8384706;28;20053;-72
2022/05/08 05:06:55;;;;;;;3.63;1.67;;;;;;;9.41;88.46;99882.22;8387799;28;20036;-72
2022/05/08 05:10:57;;;;;;;2.40;1.55;;;;;;;9.57;88.00;99883.19;8387542;28;20044;-72
2022/05/08 05:14:59;;;;;;;1.60;1.50;;;;;;;9.77;87.21;99878.16;8353849;28;20051;-72
2022/05/08 05:19:01;;;;;;;;;;;;;;;9.93;86.92;99883.44;8389543;28;20051;-72
2022/05/08 05:23:03;;;;;;;2.85;1.52;;;;;;;10.16;86.16;99890.50;8388760;28;19975;-72
2022/05/08 05:27:05;;;;;;;3.45;1.80;;;;;;;10.33;85.68;99895.78;8388380;28;20115;-72
2022/05/08 05:31:07;;;;;;;2.60;1.58;;;;;;;10.71;85.80;99898.53;8388564;28;20079;-72
2022/05/08 05:35:09;;;;;;;3.17;1.60;;;;;;;11.64;81.73;99899.53;8369748;28;20082;-72
2022/05/08 05:39:11;;;;;;;2.80;1.42;;;;;;;12.17;79.27;99902.94;8384909;28;20048;-72
2022/05/08 05:43:12;;;;;;;2.25;1.98;;;;;;;12.45;77.98;99898.53;8386397;28;20048;-72
2022/05/08 05:51:34;;;;;;;2.53;1.40;;;;;;;12.92;76.41;99906.97;8385600;28;20087;-72
2022/05/08 05:55:35;;;;;;;4.03;1.77;;;;;;;13.37;74.80;99904.97;8386874;28;20044;-72
2022/05/08 05:59:36;;;;;;;1.90;1.80;;;;;;;13.80;73.55;99907.22;8365850;28;20809;-73
2022/05/08 06:03:40;;;;;;;2.47;1.77;;;;;;;14.24;73.18;99921.59;8386641;28;20048;-72
2022/05/08 06:07:42;;;;;;;1.57;1.47;;;;;;;14.67;71.72;99916.75;8368166;28;20044;-73
2022/05/08 06:11:44;;;;;;;2.05;1.55;;;;;;;15.18;70.46;99923.03;8370271;28;20515;-72
2022/05/08 06:15:45;;;;;;;1.67;1.58;;;;;;;15.73;68.84;99927.44;8386641;28;20037;-72
2022/05/08 06:19:47;;;;;;;2.20;1.57;;;;;;;16.01;68.04;99928.69;8387451;28;20076;-73
2022/05/08 06:23:49;;;;;;;;;;;;;;;16.39;67.01;99923.63;8391763;28;20050;-73
2022/05/08 06:27:50;;;;;;;2.20;1.60;;;;;;;16.84;65.88;99935.81;8387013;28;19955;-72
2022/05/08 06:31:53;;;;;;;3.50;2.23;;;;;;;17.27;64.77;99926.16;8385846;28;20420;-73
2022/05/08 06:35:54;;;;;;;3.10;2.85;;;;;;;17.75;62.24;99930.25;8385534;28;20301;-74
2022/05/08 06:39:56;;;;;;;3.08;2.83;;;;;;;18.26;60.22;99928.94;8386618;28;20691;-74
2022/05/08 06:43:57;;;;;;;3.60;2.40;;;;;;;18.73;59.50;99929.41;8386435;28;20696;-74
2022/05/08 06:47:59;;;;;;;4.50;2.78;;;;;;;19.08;57.39;99928.38;8384145;28;20047;-74
2022/05/08 06:52:00;;;;;;;4.03;3.00;;;;;;;19.33;56.78;99930.19;8368658;28;20389;-74
2022/05/08 06:56:02;;;;;;;3.25;2.92;;;;;;;19.55;55.40;99925.13;8352965;28;20039;-74
2022/05/08 07:04:24;;;;;;;2.92;2.55;;;;;;;19.87;54.74;99929.31;8389775;28;20059;-74
2022/05/08 07:08:27;;;;;;;2.95;2.72;;;;;;;20.11;53.33;99929.41;8386674;28;20071;-74
2022/05/08 07:12:28;;;;;;;2.80;2.58;;;;;;;20.28;52.78;99928.81;8383756;28;20135;-74
2022/05/08 07:16:31;;;;;;;3.22;2.50;;;;;;;20.56;52.36;99931.34;8372735;28;20072;-73
2022/05/08 07:20:33;;;;;;;3.45;2.38;;;;;;;20.78;52.30;99935.78;8361895;28;20048;-72
2022/05/08 07:24:35;;;;;;;3.75;2.67;;;;;;;20.93;51.07;99931.69;8365628;28;20055;-73
2022/05/08 07:28:36;;;;;;;2.75;2.40;;;;;;;21.10;50.35;99934.56;8386215;28;20087;-73
2022/05/08 07:32:38;;;;;;;6.38;2.53;;;;;;;21.39;50.56;99933.44;8369395;28;20048;-72
2022/05/08 07:36:39;;;;;;;3.30;2.30;;;;;;;21.64;48.89;99937.72;8339950;28;20052;-72
2022/05/08 07:40:43;;;;;;;4.43;1.80;;;;;;;21.81;48.31;99927.31;8361704;28;20131;-73
2022/05/08 07:44:44;;;;;;;2.97;2.20;;;;;;;22.10;47.79;99928.78;8364144;28;20375;-73
2022/05/08 07:48:46;;;;;;;3.88;2.20;;;;;;;22.32;47.19;99934.00;8381538;28;20127;-72
2022/05/08 07:52:47;;;;;;;6.28;2.30;;;;;;;22.37;46.47;99937.28;8364891;28;20151;-72
2022/05/08 07:56:48;;;;;;;2.97;1.83;;;;;;;22.54;46.41;99939.19;8379243;28;20049;-73
2022/05/08 08:00:53;;;;;;;4.88;2.10;;;;;;;22.63;45.09;99937.94;8355985;28;20424;-73
2022/05/08 08:04:55;;;;;;;4.25;1.90;;;;;;;22.85;45.79;99944.00;8343496;28;20105;-73
2022/05/08 08:08:57;;;;;;;2.38;1.48;;;;;;;23.04;45.24;99947.50;8381717;28;20054;-73
2022/05/08 08:13:04;;;;;;;3.92;2.00;;;;;;;23.03;44.03;99952.88;8387688;28;20044;-73
2022/05/08 08:17:05;;;;;;;1.85;1.50;;;;;;;23.26;44.90;99955.28;8387709;28;20046;-74
2022/05/08 08:21:07;;;;;;;4.15;2.00;;;;;;;23.35;43.57;99951.38;8373504;28;20047;-73
2022/05/08 08:25:08;;;;;;;3.97;1.60;;;;;;;23.46;43.97;99960.50;8390633;28;20076;-73
2022/05/08 08:29:10;;;;;;;;;;;;;;;23.55;44.04;99959.22;8375421;28;20139;-73
2022/05/08 08:33:11;;;;;;;3.08;1.60;;;;;;;23.62;42.89;99958.00;8374612;28;20571;-73
2022/05/08 08:37:13;;;;;;;;;;;;;;;23.61;42.52;99958.06;8392617;28;20072;-74
2022/05/08 08:41:15;;;;;;;2.70;1.43;;;;;;;23.57;42.90;99957.38;8391728;28;19928;-73
2022/05/08 08:49:51;;;;;;;1.50;1.40;;;;;;;24.04;43.19;99960.31;8388432;28;20067;-73
2022/05/08 08:53:55;;;;;;;1.38;1.13;;;;;;;24.16;42.83;99966.78;8386894;28;20333;-73
2022/05/08 08:57:57;;;;;;;2.58;1.60;;;;;;;24.13;42.43;99969.59;8390332;28;20074;-73
2022/05/08 09:01:58;;;;;;;;;;;;;;;24.22;42.80;99957.66;8368100;28;20480;-74
2022/05/08 09:06:03;;;;;;;1.48;1.05;;;;;;;24.35;42.38;99967.59;8359061;28;19978;-74
2022/05/08 09:10:19;;;;;;;3.08;1.50;;;;;;;24.38;41.94;99962.13;8354853;28;20151;-73
2022/05/08 09:14:32;;;;;;;4.95;1.25;;;;;;;24.60;42.02;99959.22;8363049;28;20114;-73
2022/05/08 09:18:47;;;;;;;2.40;1.10;;;;;;;24.65;41.54;99965.13;8369419;28;20057;-74
2022/05/08 09:23:09;;;;;;;2.10;1.08;;;;;;;24.77;40.08;99968.06;8380222;28;20051;-73
2022/05/08 09:27:18;;;;;;;1.30;1.08;;;;;;;24.83;39.91;99968.59;8381574;28;20044;-74
2022/05/08 09:31:21;;;;;;;3.30;1.15;;;;;;;24.85;39.91;99961.41;8383282;28;20052;-74
2022/05/08 09:35:23;;;;;;;4.97;1.13;;;;;;;24.96;41.09;99955.53;8384768;28;20055;-74
2022/05/08 09:39:24;;;;;;;;;;;;;;;24.97;39.80;99954.59;8382221;28;20073;-73
2022/05/08 09:43:28;;;;;;;2.33;1.20;;;;;;;24.91;40.52;99946.94;8384762;28;20047;-73
2022/05/08 09:47:49;;;;;;;2.45;0.90;;;;;;;24.82;38.72;99955.41;8370550;28;20436;-73
2022/05/08 09:51:51;;;;;;;2.33;0.88;;;;;;;24.88;39.22;99952.41;8380207;28;20048;-73
2022/05/08 09:55:54;;;;;;;1.58;0.90;;;;;;;24.77;38.79;99950.31;8380163;28;20068;-74
2022/05/08 09:59:59;;;;;;;1.23;1.08;;;;;;;24.83;39.38;99949.16;8375923;28;20048;-73
2022/05/08 10:04:01;;;;;;;1.77;1.00;;;;;;;24.85;39.27;99949.94;8380922;28;20346;-73
2022/05/08 10:08:03;;;;;;;6.30;1.10;;;;;;;25.00;39.16;99946.47;8377153;28;20040;-73
2022/05/08 10:16:47;;;;;;;1.10;0.80;;;;;;;25.30;38.81;99944.75;8374646;28;20064;-72
2022/05/08 10:21:12;;;;;;;2.67;0.93;;;;;;;25.49;39.87;99933.91;8371645;28;20079;-74
2022/05/08 10:25:17;;;;;;;3.47;1.00;;;;;;;25.69;38.50;99934.66;8371923;28;20044;-73
2022/05/08 10:29:21;;;;;;;1.38;0.75;;;;;;;25.56;38.90;99935.31;8372120;28;20036;-73
2022/05/08 10:34:01;;;;;;;1.75;0.90;;;;;;;25.53;38.14;99934.63;8354707;28;20139;-74
2022/05/08 10:38:03;;;;;;;2.85;0.82;;;;;;;25.51;38.17;99933.88;8357924;28;20072;-73
2022/05/08 10:42:05;;;;;;;1.77;0.82;;;;;;;25.17;37.65;99927.78;8350749;28;20687;-73
2022/05/08 10:46:20;;;;;;;1.90;0.75;;;;;;;25.23;37.50;99924.78;8376113;28;20041;-73
2022/05/08 10:50:21;;;;;;;4.35;1.10;;;;;;;25.44;38.06;99924.50;8370741;28;20155;-74
2022/05/08 10:54:23;;;;;;;3.50;1.08;;;;;;;26.05;39.26;99916.50;8360435;28;20079;-73
2022/05/08 10:58:25;;;;;;;0.75;0.60;;;;;;;26.34;37.16;99913.88;8378939;28;20135;-73
2022/05/08 11:02:39;;;;;;;;;;;;;;;26.45;36.54;99906.97;8374821;28;20139;-73
2022/05/08 11:06:41;;;;;;;2.08;1.00;;;;;;;26.46;37.20;99906.03;8362611;28;19925;-73
2022/05/08 11:10:43;;;;;;;1.80;0.60;;;;;;;26.66;34.25;99902.13;8381178;28;20049;-74
2022/05/08 11:14:44;;;;;;;1.48;0.68;;;;;;;26.87;34.63;99904.38;8379573;28;20684;-74
2022/05/08 11:18:46;;;;;;;2.08;0.65;;;;;;;26.86;33.85;99910.66;8360545;28;20119;-74
2022/05/08 11:22:55;;;;;;;;;;;;;;;26.18;34.30;99906.81;8364769;28;20048;-74
2022/05/08 11:26:56;;;;;;;5.07;0.95;;;;;;;26.09;36.24;99906.53;8378188;28;20227;-74
2022/05/08 11:30:59;;;;;;;1.42;0.60;;;;;;;26.32;34.61;99892.66;8374159;28;20059;-73
2022/05/08 11:39:28;;;;;;;1.45;0.60;;;;;;;26.66;32.81;99895.94;8380952;28;20043;-74
2022/05/08 11:43:58;;;;;;;1.52;0.60;;;;;;;25.97;32.79;99897.47;8380515;28;20451;-75
2022/05/08 11:47:59;;;;;;;1.60;0.50;;;;;;;25.56;34.11;99907.84;8358784;28;20606;-74
2022/05/08 11:52:03;;;;;;;1.33;0.63;;;;;;;25.96;34.50;99894.91;8367213;28;20117;-74
2022/05/08 11:56:31;;;;;;;4.60;0.60;;;;;;;26.18;33.35;99889.97;8384838;28;20072;-74
2022/05/08 12:00:32;;;;;;;3.13;0.68;;;;;;;26.42;33.19;99885.88;8382772;28;20131;-74
2022/05/08 12:04:34;;;;;;;;;;;;;;;26.23;33.27;99876.41;8353262;28;20071;-73
2022/05/08 12:08:35;;;;;;;3.63;0.47;;;;;;;25.69;32.42;99876.13;8370515;28;20297;-74
2022/05/08 12:12:38;;;;;;;1.00;0.50;;;;;;;25.17;32.98;99879.09;8369088;28;20072;-74
2022/05/08 12:16:39;;;;;;;1.17;0.47;;;;;;;25.40;33.28;99873.31;8382508;28;20055;-73
2022/05/08 12:20:42;;;;;;;2.70;0.68;;;;;;;25.51;32.82;99884.19;8377107;28;20052;-73
2022/05/08 12:24:44;;;;;;;0.40;0.40;;;;;;;25.67;33.99;99880.59;8360032;28;20179;-73
2022/05/08 12:28:45;;;;;;;;;;;;;;;25.68;33.63;99874.41;8377712;28;20513;-74
2022/05/08 12:32:47;;;;;;;;;;;;;;;26.00;32.55;99870.66;8379569;28;20384;-73
2022/05/08 12:36:48;;;;;;;1.35;0.55;;;;;;;26.29;32.40;99868.03;8388116;28;20507;-73
2022/05/08 12:40:50;;;;;;;;;;;;;;;25.99;32.17;99868.09;8385665;28;20048;-73
2022/05/08 12:44:51;;;;;;;1.13;0.60;;;;;;;25.54;32.90;99869.84;8386650;28;19999;-73
2022/05/08 12:48:53;;;;;;;1.85;0.65;;;;;;;25.34;34.55;99867.50;8379452;28;20108;-74
2022/05/08 12:52:56;;;;;;;4.03;1.00;;;;;;;25.68;34.14;99859.31;8383709;28;20072;-74
2022/05/08 12:56:59;;;;;;;1.27;0.50;;;;;;;26.07;33.09;99855.19;8385150;28;20132;-73
2022/05/08 13:01:01;;;;;;;7.53;0.75;;;;;;;26.37;32.52;99852.47;8380138;28;20059;-73
2022/05/08 13:05:03;;;;;;;1.35;1.00;;;;;;;25.99;30.82;99858.31;8362731;28;20125;-74
2022/05/08 13:09:06;;;;;;;1.98;0.80;;;;;;;26.05;31.85;99849.13;8370886;28;20056;-73
2022/05/08 13:13:08;;;;;;;0.77;0.50;;;;;;;26.29;32.26;99844.94;8386960;28;20076;-73
2022/05/08 13:17:10;;;;;;;2.13;0.80;;;;;;;26.57;31.72;99845.88;8365147;28;20159;-73
2022/05/08 13:21:13;;;;;;;5.20;0.77;;;;;;;26.72;31.12;99844.91;8366551;28;20045;-73
2022/05/08 13:25:15;;;;;;;2.17;0.52;;;;;;;26.69;31.16;99848.66;8357128;28;20503;-73
2022/05/08 13:29:17;;;;;;;1.70;0.50;;;;;;;26.67;29.69;99829.25;8388125;28;20135;-73
2022/05/08 13:33:18;;;;;;;1.33;0.88;;;;;;;26.86;32.05;99839.56;8383206;28;20760;-73
2022/05/08 13:37:20;;;;;;;1.70;0.77;;;;;;;26.58;31.60;99835.16;8369160;28;20476;-73
2022/05/08 13:41:21;;;;;;;1.52;0.63;;;;;;;26.07;31.98;99842.75;8365987;28;20041;-73
2022/05/08 13:45:23;;;;;;;2.03;0.60;;;;;;;26.03;31.87;99832.34;8368022;28;20059;-73
2022/05/08 13:49:25;;;;;;;5.07;0.80;;;;;;;26.03;31.13;99824.38;8384145;28;20041;-73
2022/05/08 13:53:26;;;;;;;;;;;;;;;26.09;31.49;99822.22;8353642;28;20131;-73
2022/05/08 13:57:31;;;;;;;2.55;0.98;;;;;;;26.35;32.18;99825.94;8379704;28;20031;-73
2022/05/08 14:01:32;;;;;;;0.68;0.50;;;;;;;26.09;31.75;99829.34;8366993;28;20524;-73
2022/05/08 14:05:35;;;;;;;0.85;0.50;;;;;;;25.66;32.23;99828.34;8366000;28;20040;-73
2022/05/08 14:09:37;;;;;;;2.20;0.60;;;;;;;25.20;33.32;99825.75;8355117;28;20155;-73
2022/05/08 14:13:40;;;;;;;0.93;0.50;;;;;;;24.91;33.60;99816.75;8379624;28;20429;-73
2022/05/08 14:17:41;;;;;;;2.30;0.60;;;;;;;25.17;34.48;99809.97;8369452;28;20044;-73
2022/05/08 14:21:43;;;;;;;;;;;;;;;25.78;34.21;99812.56;8367010;28;20055;-73
2022/05/08 14:25:44;;;;;;;1.23;0.60;;;;;;;25.96;31.26;99807.94;8374865;28;19924;-72
2022/05/08 14:29:45;;;;;;;0.60;0.43;;;;;;;25.84;33.66;99804.19;8378839;28;20076;-72
2022/05/08 14:38:07;;;;;;;1.10;0.50;;;;;;;25.20;33.09;99802.69;8361565;28;20068;-73
2022/05/08 14:42:09;;;;;;;2.75;0.60;;;;;;;24.89;34.08;99805.34;8380203;28;20873;-72
2022/05/08 14:46:10;;;;;;;3.50;0.60;;;;;;;24.70;34.08;99806.38;8375919;28;20048;-72
2022/05/08 14:50:12;;;;;;;;;;;;;;;24.48;33.95;99805.00;8360113;28;20045;-73
2022/05/08 14:54:14;;;;;;;3.25;0.68;;;;;;;24.16;34.99;99809.38;8349440;28;19960;-72
2022/05/08 14:58:15;;;;;;;;;;;;;;;23.92;36.41;99809.75;8370709;28;20512;-72
2022/05/08 15:02:17;;;;;;;1.08;0.60;;;;;;;23.86;36.05;99799.44;8373730;28;20023;-72
2022/05/08 15:06:20;;;;;;;1.48;0.60;;;;;;;23.80;37.20;99803.28;8362610;28;20071;-72
2022/05/08 15:10:22;;;;;;;1.10;0.70;;;;;;;23.79;37.28;99806.00;8343263;28;20025;-72
2022/05/08 15:14:25;;;;;;;1.02;0.73;;;;;;;23.72;36.95;99804.63;8379752;28;20045;-72
2022/05/08 15:18:48;;;;;;;3.90;0.60;;;;;;;23.65;35.76;99811.16;8369208;28;20051;-72
2022/05/08 15:22:49;;;;;;;6.32;1.17;;;;;;;23.55;37.48;99800.16;8379605;28;20044;-72
2022/05/08 15:26:51;;;;;;;1.58;0.60;;;;;;;23.41;38.12;99795.53;8378382;28;20076;-72
2022/05/08 15:30:55;;;;;;;;;;;;;;;23.34;39.50;99799.44;8376996;28;20524;-73
2022/05/08 15:34:58;;;;;;;0.60;0.60;;;;;;;23.39;38.72;99805.38;8381613;28;20023;-72
2022/05/08 15:39:00;;;;;;;3.08;0.60;;;;;;;23.53;38.61;99809.97;8378651;28;20047;-72
2022/05/08 15:43:03;;;;;;;2.05;0.68;;;;;;;23.88;36.87;99791.38;8380123;28;20076;-72
2022/05/08 15:47:05;;;;;;;3.70;1.00;;;;;;;23.82;35.68;99800.53;8359717;28;20397;-73
2022/05/08 15:51:07;;;;;;;3.45;1.13;;;;;;;23.69;36.01;99795.00;8360562;28;20044;-73
2022/05/08 15:55:09;;;;;;;0.95;0.75;;;;;;;23.47;38.95;99803.16;8377994;28;20044;-73
2022/05/08 15:59:11;;;;;;;2.60;0.63;;;;;;;23.38;36.34;99794.84;8360942;28;20674;-72
2022/05/08 16:03:13;;;;;;;0.82;0.60;;;;;;;23.41;37.17;99798.19;8360323;28;20098;-73
2022/05/08 16:07:15;;;;;;;3.13;0.60;;;;;;;23.41;36.52;99792.03;8378749;28;20122;-73
2022/05/08 16:11:16;;;;;;;1.70;0.80;;;;;;;23.68;36.13;99792.44;8377907;28;20075;-73
2022/05/08 16:23:58;;;;;;;2.72;0.60;;;;;;;23.65;37.51;99797.91;8378855;28;20048;-72
2022/05/08 16:28:00;;;;;;;2.88;0.70;;;;;;;23.46;38.32;99803.25;8379304;28;20047;-73
2022/05/08 16:32:02;;;;;;;0.90;0.80;;;;;;;23.23;38.60;99811.50;8361094;28;20631;-72
2022/05/08 16:36:03;;;;;;;2.45;0.68;;;;;;;23.07;39.34;99798.16;8381201;28;20055;-72
2022/05/08 16:40:06;;;;;;;1.52;0.80;;;;;;;22.95;40.78;99799.59;8381249;28;20051;-73
2022/05/08 16:44:07;;;;;;;2.92;0.82;;;;;;;22.86;40.00;99816.81;8368532;28;20044;-73
2022/05/08 16:48:09;;;;;;;0.80;0.80;;;;;;;22.66;39.68;99811.56;8359839;28;20449;-73
2022/05/08 16:52:10;;;;;;;0.82;0.80;;;;;;;22.47;40.35;99813.38;8376245;28;20147;-73
2022/05/08 16:56:11;;;;;;;0.85;0.73;;;;;;;22.25;41.06;99819.63;8384909;28;20704;-73
2022/05/08 17:00:14;;;;;;;1.27;0.80;;;;;;;22.10;42.01;99824.75;8377863;28;20051;-73
2022/05/08 17:04:16;;;;;;;8.30;1.00;;;;;;;21.99;42.78;99819.91;8369164;28;20055;-73
2022/05/08 17:08:17;;;;;;;1.98;0.80;;;;;;;21.94;43.08;99825.41;8384544;28;20076;-73
2022/05/08 17:12:20;;;;;;;4.40;0.80;;;;;;;21.92;42.91;99829.06;8375618;28;20766;-73
2022/05/08 17:16:21;;;;;;;0.98;0.73;;;;;;;21.96;43.37;99825.34;8368171;28;20044;-73
2022/05/08 17:20:23;;;;;;;2.63;0.88;;;;;;;21.91;44.04;99827.34;8369064;28;20044;-73
2022/05/08 17:24:24;;;;;;;0.80;0.80;;;;;;;21.97;44.87;99825.25;8358052;28;20040;-73
2022/05/08 17:33:00;;;;;;;1.42;0.85;;;;;;;21.87;45.73;99839.81;8322012;28;20059;-73
2022/05/08 17:37:03;;;;;;;5.00;1.10;;;;;;;21.82;47.05;99841.78;8379748;28;20060;-74
2022/05/08 17:41:05;;;;;;;;;;;;;;;21.71;47.07;99841.38;8383948;28;20487;-73
2022/05/08 17:45:07;;;;;;;1.35;1.00;;;;;;;21.52;47.42;99835.16;8365588;28;19939;-73
2022/05/08 17:49:09;;;;;;;1.85;0.90;;;;;;;21.37;47.80;99841.97;8383996;28;20080;-73
2022/05/08 17:53:12;;;;;;;1.70;0.90;;;;;;;21.31;48.00;99860.69;8383438;28;20044;-72
2022/05/08 17:57:13;;;;;;;1.65;0.90;;;;;;;21.13;49.47;99856.97;8365643;28;20036;-72
2022/05/08 18:01:19;;;;;;;2.17;1.20;;;;;;;21.07;49.13;99867.81;8363842;28;20068;-74
2022/05/08 18:09:41;;;;;;;1.40;0.82;;;;;;;20.76;49.92;99869.00;8379030;28;20048;-74
2022/05/08 18:13:42;;;;;;;1.00;0.90;;;;;;;20.60;49.35;99880.19;8379180;28;20063;-74
2022/05/08 18:17:44;;;;;;;1.85;1.30;;;;;;;20.50;48.50;99890.25;8375787;28;20044;-74
2022/05/08 18:21:46;;;;;;;2.03;1.48;;;;;;;20.36;48.59;99892.47;8380187;28;20050;-75
2022/05/08 18:25:48;;;;;;;;;;;;;;;20.23;48.26;99902.59;8365257;28;20071;-74
2022/05/08 18:29:49;;;;;;;6.03;1.60;;;;;;;20.08;49.41;99901.34;8376813;28;19928;-74
2022/05/08 18:33:51;;;;;;;1.90;1.20;;;;;;;19.94;48.34;99919.47;8359411;28;20147;-73
2022/05/08 18:37:52;;;;;;;1.20;0.95;;;;;;;19.84;48.47;99921.53;8363477;28;20421;-73
2022/05/08 18:41:54;;;;;;;2.13;1.05;;;;;;;19.65;50.24;99927.47;8381077;28;20404;-72
2022/05/08 18:45:55;;;;;;;1.77;1.35;;;;;;;19.48;50.28;99925.34;8375567;28;20780;-72
2022/05/08 18:49:57;;;;;;;1.17;0.80;;;;;;;19.33;50.47;99930.19;8381826;28;20087;-73
2022/05/08 18:53:59;;;;;;;4.38;0.98;;;;;;;19.25;50.20;99936.63;8380944;28;20044;-72
2022/05/08 18:58:02;;;;;;;4.47;0.90;;;;;;;19.12;51.07;99941.38;8372571;28;20068;-73
2022/05/08 19:02:04;;;;;;;2.35;0.90;;;;;;;19.02;51.49;99940.78;8364323;28;20139;-72
2022/05/08 19:06:06;;;;;;;1.60;1.40;;;;;;;18.86;51.72;99943.94;8381701;28;20802;-72
2022/05/08 19:10:08;;;;;;;2.17;1.30;;;;;;;18.75;51.83;99943.38;8382596;28;20504;-72
2022/05/08 19:14:10;;;;;;;1.80;1.00;;;;;;;18.67;52.12;99948.84;8360624;28;20504;-72
2022/05/08 19:18:12;;;;;;;1.42;0.93;;;;;;;18.57;52.67;99952.63;8373374;28;20504;-72
2022/05/08 19:22:13;;;;;;;0.73;0.73;;;;;;;18.47;52.79;99957.25;8376437;28;20056;-71
2022/05/08 19:26:14;;;;;;;2.72;0.90;;;;;;;18.36;53.20;99964.59;8362956;28;20083;-72
2022/05/08 19:30:16;;;;;;;2.40;0.80;;;;;;;18.26;53.58;99969.22;8374638;28;20473;-72
2022/05/08 19:38:39;;;;;;;0.70;0.70;;;;;;;17.95;54.09;99977.03;8376071;28;20045;-71
2022/05/08 19:42:41;;;;;;;2.22;0.70;;;;;;;17.82;55.68;99988.78;8342600;28;20044;-71
2022/05/08 19:46:44;;;;;;;0.60;0.60;;;;;;;17.53;57.75;99985.03;8328771;28;20115;-71
2022/05/08 19:50:45;;;;;;;1.48;0.70;;;;;;;17.20;60.06;99993.66;8368890;28;20043;-72
2022/05/08 19:54:48;;;;;;;1.27;0.80;;;;;;;17.09;59.47;99998.28;8368568;28;20076;-72
2022/05/08 19:58:49;;;;;;;;;;;;;;;17.02;57.64;99994.03;8366954;28;20534;-71
2022/05/08 20:02:52;;;;;;;1.10;0.77;;;;;;;16.98;58.17;100000.25;8374746;28;19974;-71
2022/05/08 20:06:56;;;;;;;1.13;0.75;;;;;;;16.77;61.04;100007.66;8367178;28;20855;-71
2022/05/08 20:10:58;;;;;;;1.25;0.85;;;;;;;16.56;61.91;100008.94;8386944;28;20071;-71